Aeroporto :
LOGIN :

Iscrizione | Disclaimer

   EN    FR    IT 

 










Sommario :    VFR   VFR Marginale   IFR   IFR Intensivo   IFR Molto Intensivo
Visibilità : 
Base nubi : 
>= 8 km
>= 3000ft
5 / 8 km
1000 / 3000 ft
1500m / 5 km
500 / 1000 ft
800 / 1500m
200 / 500 ft
< 800m
< 200 ft
Simboli :   Temporali  Nebbia  Neve Forte  Precipitazioni Forti  Vento > 20 kt
SIGMETs :   Varie  Temporali  Ghiacco  Turbolenza  Onda orograficha  Ceneri Vulcaniche






- Altitudine del aeroporto : 697 ft
- Codice IATA : PEG


LIRZ - San Edigio Perugia

ULTIMO METAR :
  • 261150Z AUTO 23003KT 180V280 //// // BKN004/// 07/07 Q1023

METARs OBSOLETI :
  • 261120Z AUTO 23003KT 190V260 //// // OVC004 06/06 Q1024
  • 261050Z AUTO VRB01KT //// // OVC002/// 06/06 Q1024
  • 261020Z AUTO VRB02KT //// // BKN002/// 05/05 Q1024
  • 260950Z AUTO 28005KT //// // BKN002/// 05/05 Q1025
  • 260920Z AUTO 25003KT //// // OVC002/// 04/04 Q1025

TAF TAF LIRZ
Valido dal 26 a 12 ore il 27 a 12 ore UTC


261100Z 2612/2712 VRB05KT 2000 BCFG OVC003
BECMG 2613/2615 6000 SCT015
TEMPO 2700/2708 0800 FG



MetMap, La meteo Aeronautica in un colpo d'occhio ! - Copyright ORBIFLY Dicembre 2007 - Disclaimer

ORBIFLY MET'MAP TEAM :

Programmazione e sviluppo : Alexandra Zaïnal
Concezione : Baudouin d'Aumeries
Aiuto per la programmazione : Marc-Olivier Méhu
Supporto tecnico e logistico : Manuel Goepfert
Aiuto per la traduzione : Arnaldo La Scala

Contatto : metmap@orbifly.com




FONTI E CREDITI :

   NOAA